»·PEaware :: N8068C KMAE-KSBP

N8068C :: KMAE-KSBP

FLIGHT INFORMATION

Flight Status: Arrived
Operator: Privately registered:
United States
More flights under this callsign
Pilot: Ryan B. (29)
Aircraft: Unknown
(LNC4)
More flights by this aircraft type
Origin: KMAE Madera Mun
United States
Destination: KSBP San Luis Co Regl
United States
More flights between these airports :: More routes between these airports
Route: +MQO
File this flight plan on PilotEdge
Remarks: charts / V /
Altitude:
(Current/Filed)
130ft
Speed:
(Current/Filed)
220kts
Departed: 17-Mar-12 06:14 PM
Arrived: 17-Mar-12 07:18 PM
Distance/Time
Traveled:
108nm/1:04
Distance/Time
To Go:
Arrived

Flight Plot

Page will automatically refresh every two minutes.

Flight plan parsing failed; only flown route is shown


Map Options




Map Legend


Flown Route
Filed Route
Departure Airport
Arrival Airport
Navaid (VOR, NDB)
Fix

Horizontal Profiles

Position Reports

Time Latitude Longitude Heading Altitude Ground
Speed
17-Mar-12 18:05 36.988016 -120.108013 44 257ft 0kts
17-Mar-12 18:06 36.988017 -120.108012 43 257ft 0kts
17-Mar-12 18:07 36.988017 -120.108010 43 257ft 0kts
17-Mar-12 18:08 36.988018 -120.108009 43 257ft 0kts
17-Mar-12 18:09 36.988019 -120.108008 43 257ft 0kts
17-Mar-12 18:10 36.987812 -120.108393 279 257ft 12kts
17-Mar-12 18:11 36.984318 -120.106028 188 257ft 2kts
17-Mar-12 18:12 36.983971 -120.106034 201 257ft 10kts
17-Mar-12 18:13 36.999388 -120.118230 23 856ft 124kts
17-Mar-12 18:14 37.014777 -120.073492 44 2987ft 120kts
17-Mar-12 18:15 37.046947 -120.078075 276 4506ft 162kts
17-Mar-12 18:16 37.025083 -120.119442 229 6543ft 144kts
17-Mar-12 18:17 37.002275 -120.164744 238 8081ft 160kts
17-Mar-12 18:18 36.979434 -120.214305 238 9598ft 171kts
17-Mar-12 18:19 36.949934 -120.264182 204 11122ft 191kts
17-Mar-12 18:20 36.896501 -120.279001 193 12647ft 198kts
17-Mar-12 18:21 36.836408 -120.293373 193 13004ft 239kts
17-Mar-12 18:22 36.771542 -120.310615 195 13000ft 236kts
17-Mar-12 18:23 36.707515 -120.329672 196 13000ft 235kts
17-Mar-12 18:24 36.643735 -120.348852 196 13000ft 235kts
17-Mar-12 18:25 36.579992 -120.367999 196 13000ft 235kts
17-Mar-12 18:26 36.516354 -120.387065 196 13003ft 235kts
17-Mar-12 18:27 36.452287 -120.406165 196 13000ft 235kts
17-Mar-12 18:28 36.388537 -120.425207 196 13012ft 235kts
17-Mar-12 18:29 36.325058 -120.444145 197 13055ft 234kts
17-Mar-12 18:30 36.261210 -120.463186 197 13012ft 237kts
17-Mar-12 18:31 36.196870 -120.482313 198 13006ft 236kts
17-Mar-12 18:32 36.132585 -120.501403 198 13003ft 238kts
17-Mar-12 18:33 36.067395 -120.520738 198 13021ft 242kts
17-Mar-12 18:35 35.943666 -120.557393 199 11918ft 218kts
17-Mar-12 18:36 35.894505 -120.571921 199 11249ft 215kts
17-Mar-12 18:37 35.836514 -120.589011 199 10448ft 212kts
17-Mar-12 18:38 35.779046 -120.605922 199 9648ft 211kts
17-Mar-12 18:39 35.721806 -120.622726 199 8847ft 210kts
17-Mar-12 18:40 35.664660 -120.639464 199 8102ft 209kts
17-Mar-12 18:41 35.610921 -120.661850 213 7721ft 194kts
17-Mar-12 18:42 35.562505 -120.692835 213 6922ft 196kts
17-Mar-12 18:43 35.513615 -120.724830 212 6121ft 200kts
17-Mar-12 18:44 35.463285 -120.755733 213 5312ft 198kts
17-Mar-12 18:45 35.413773 -120.784918 213 4508ft 196kts
17-Mar-12 18:46 35.365175 -120.814408 213 3708ft 192kts
17-Mar-12 18:47 35.313956 -120.822950 142 3014ft 213kts
17-Mar-12 18:48 35.301811 -120.758832 107 2948ft 193kts
17-Mar-12 18:49 35.271664 -120.700949 126 1939ft 208kts
17-Mar-12 18:50 35.238071 -120.642744 125 1009ft 189kts
17-Mar-12 18:51 35.206558 -120.627043 261 2014ft 140kts
17-Mar-12 18:52 35.208187 -120.668347 304 3176ft 112kts
17-Mar-12 18:53 35.226900 -120.706068 300 2999ft 137kts
17-Mar-12 18:54 35.245959 -120.746321 300 2998ft 133kts
17-Mar-12 18:55 35.233601 -120.777853 175 2994ft 165kts
17-Mar-12 18:56 35.193715 -120.747238 146 2998ft 171kts
17-Mar-12 18:57 35.201358 -120.710078 341 3001ft 122kts
17-Mar-12 18:58 35.227316 -120.733715 322 3009ft 120kts
17-Mar-12 18:59 35.253068 -120.759848 311 2997ft 120kts
17-Mar-12 19:00 35.231313 -120.777499 153 3019ft 166kts
17-Mar-12 19:01 35.198808 -120.739131 86 2994ft 165kts
17-Mar-12 19:02 35.222761 -120.732619 296 3025ft 126kts
17-Mar-12 19:03 35.255131 -120.762216 313 3089ft 159kts
17-Mar-12 19:04 35.287917 -120.792715 321 3997ft 155kts
17-Mar-12 19:05 35.325995 -120.827725 321 4001ft 181kts
17-Mar-12 19:06 35.365754 -120.863786 318 3996ft 169kts
17-Mar-12 19:07 35.391662 -120.906821 291 4001ft 156kts
17-Mar-12 19:08 35.407280 -120.955122 248 3988ft 142kts
17-Mar-12 19:09 35.381571 -120.944323 95 4034ft 164kts
17-Mar-12 19:10 35.376532 -120.887321 115 4000ft 168kts
17-Mar-12 19:11 35.350477 -120.838070 127 3789ft 184kts
17-Mar-12 19:12 35.319117 -120.784335 127 3210ft 190kts
17-Mar-12 19:13 35.292647 -120.738455 124 2477ft 144kts
17-Mar-12 19:14 35.272396 -120.702630 124 1587ft 115kts
17-Mar-12 19:15 35.255262 -120.672435 124 900ft 103kts
17-Mar-12 19:16 35.239250 -120.644362 123 216ft 89kts
17-Mar-12 19:17 35.238760 -120.639952 85 216ft 0kts

Navigation Log

Ident Type
Flight plan parsing failed, navigation log unavailable